sensor_id;sensor_type;location;lat;lon;timestamp;pressure;altitude;pressure_sealevel;temperature;humidity
17505;BME280;8870;50.950;11.762;2023-03-13T00:03:42;97583.84;;;7.35;100.00
17505;BME280;8870;50.950;11.762;2023-03-13T00:09:16;97577.47;;;7.36;100.00
17505;BME280;8870;50.950;11.762;2023-03-13T00:14:34;97561.09;;;7.39;100.00
17505;BME280;8870;50.950;11.762;2023-03-13T00:20:12;97564.06;;;7.36;100.00
17505;BME280;8870;50.950;11.762;2023-03-13T00:25:38;97565.81;;;7.46;100.00
17505;BME280;8870;50.950;11.762;2023-03-13T00:31:03;97562.63;;;7.50;100.00
17505;BME280;8870;50.950;11.762;2023-03-13T00:36:37;97549.38;;;7.49;100.00
17505;BME280;8870;50.950;11.762;2023-03-13T00:41:56;97558.09;;;7.51;100.00
17505;BME280;8870;50.950;11.762;2023-03-13T00:47:29;97543.69;;;7.44;100.00
17505;BME280;8870;50.950;11.762;2023-03-13T00:52:49;97542.31;;;7.31;100.00
17505;BME280;8870;50.950;11.762;2023-03-13T00:58:22;97540.94;;;7.27;100.00
17505;BME280;8870;50.950;11.762;2023-03-13T01:03:43;97539.59;;;7.23;100.00
17505;BME280;8870;50.950;11.762;2023-03-13T01:09:17;97530.88;;;7.21;100.00
17505;BME280;8870;50.950;11.762;2023-03-13T01:14:36;97522.69;;;7.22;100.00
17505;BME280;8870;50.950;11.762;2023-03-13T01:20:08;97521.00;;;7.21;100.00
17505;BME280;8870;50.950;11.762;2023-03-13T01:25:37;97521.50;;;7.25;100.00
17505;BME280;8870;50.950;11.762;2023-03-13T01:36:55;97527.22;;;7.22;100.00
17505;BME280;8870;50.950;11.762;2023-03-13T01:42:15;97512.47;;;7.26;100.00
17505;BME280;8870;50.950;11.762;2023-03-13T01:47:47;97507.13;;;7.26;100.00
17505;BME280;8870;50.950;11.762;2023-03-13T01:53:19;97507.97;;;7.27;100.00
17505;BME280;8870;50.950;11.762;2023-03-13T01:58:59;97505.44;;;7.25;100.00
17505;BME280;8870;50.950;11.762;2023-03-13T02:04:19;97497.25;;;7.27;100.00
17505;BME280;8870;50.950;11.762;2023-03-13T02:09:54;97479.66;;;7.24;100.00
17505;BME280;8870;50.950;11.762;2023-03-13T02:15:17;97457.22;;;7.25;100.00
17505;BME280;8870;50.950;11.762;2023-03-13T02:20:53;97460.94;;;7.32;100.00
17505;BME280;8870;50.950;11.762;2023-03-13T02:26:16;97455.59;;;7.40;100.00
17505;BME280;8870;50.950;11.762;2023-03-13T02:31:47;97437.50;;;7.34;100.00
17505;BME280;8870;50.950;11.762;2023-03-13T02:37:20;97434.97;;;7.41;100.00
17505;BME280;8870;50.950;11.762;2023-03-13T02:43:00;97424.25;;;7.41;100.00
17505;BME280;8870;50.950;11.762;2023-03-13T02:48:30;97434.47;;;7.37;100.00
17505;BME280;8870;50.950;11.762;2023-03-13T02:59:47;97408.34;;;7.48;100.00
17505;BME280;8870;50.950;11.762;2023-03-13T03:11:06;97379.41;;;7.51;100.00
17505;BME280;8870;50.950;11.762;2023-03-13T03:16:36;97368.84;;;7.66;100.00
17505;BME280;8870;50.950;11.762;2023-03-13T03:22:09;97355.25;;;7.68;100.00
17505;BME280;8870;50.950;11.762;2023-03-13T03:27:27;97354.06;;;7.79;100.00
17505;BME280;8870;50.950;11.762;2023-03-13T03:33:07;97343.13;;;7.89;100.00
17505;BME280;8870;50.950;11.762;2023-03-13T03:38:26;97336.94;;;8.05;100.00
17505;BME280;8870;50.950;11.762;2023-03-13T03:43:59;97324.66;;;8.02;100.00
17505;BME280;8870;50.950;11.762;2023-03-13T03:49:31;97314.09;;;8.17;100.00
17505;BME280;8870;50.950;11.762;2023-03-13T03:55:04;97298.63;;;8.27;100.00
17505;BME280;8870;50.950;11.762;2023-03-13T11:26:55;96861.34;;;13.84;100.00
17505;BME280;8870;50.950;11.762;2023-03-13T11:32:32;96850.00;;;13.94;100.00
17505;BME280;8870;50.950;11.762;2023-03-13T11:37:56;96880.97;;;14.23;100.00
17505;BME280;8870;50.950;11.762;2023-03-13T11:43:39;96859.53;;;14.22;100.00
17505;BME280;8870;50.950;11.762;2023-03-13T11:49:18;96846.41;;;14.62;100.00
17505;BME280;8870;50.950;11.762;2023-03-13T11:54:58;96839.63;;;14.90;100.00
17505;BME280;8870;50.950;11.762;2023-03-13T12:00:30;96851.00;;;14.99;100.00
17505;BME280;8870;50.950;11.762;2023-03-13T12:06:06;96849.06;;;15.18;100.00
17505;BME280;8870;50.950;11.762;2023-03-13T12:11:39;96855.50;;;15.05;100.00
17505;BME280;8870;50.950;11.762;2023-03-13T12:17:16;96842.09;;;15.10;100.00
17505;BME280;8870;50.950;11.762;2023-03-13T12:22:43;96818.34;;;15.06;100.00
17505;BME280;8870;50.950;11.762;2023-03-13T12:28:26;96802.06;;;15.06;100.00
17505;BME280;8870;50.950;11.762;2023-03-13T12:34:08;96841.56;;;15.02;100.00
17505;BME280;8870;50.950;11.762;2023-03-13T12:39:34;96799.59;;;15.04;100.00
17505;BME280;8870;50.950;11.762;2023-03-13T12:45:13;96807.13;;;15.02;100.00
17505;BME280;8870;50.950;11.762;2023-03-13T12:50:46;96827.78;;;15.03;100.00
17505;BME280;8870;50.950;11.762;2023-03-13T12:56:32;96836.28;;;15.07;100.00
17505;BME280;8870;50.950;11.762;2023-03-13T13:02:13;96823.59;;;14.89;100.00
17505;BME280;8870;50.950;11.762;2023-03-13T13:07:55;96806.59;;;14.82;100.00
17505;BME280;8870;50.950;11.762;2023-03-13T13:13:38;96822.56;;;14.71;100.00
17505;BME280;8870;50.950;11.762;2023-03-13T13:25:02;96810.97;;;14.64;100.00
17505;BME280;8870;50.950;11.762;2023-03-13T13:30:54;96790.69;;;14.85;100.00
17505;BME280;8870;50.950;11.762;2023-03-13T13:42:47;96774.94;;;14.94;100.00
17505;BME280;8870;50.950;11.762;2023-03-13T13:48:15;96753.84;;;14.96;100.00
17505;BME280;8870;50.950;11.762;2023-03-13T13:53:55;96765.03;;;15.00;100.00
17505;BME280;8870;50.950;11.762;2023-03-13T13:59:35;96750.25;;;15.14;100.00
17505;BME280;8870;50.950;11.762;2023-03-13T14:05:18;96744.91;;;15.07;100.00
17505;BME280;8870;50.950;11.762;2023-03-13T14:10:40;96728.84;;;14.94;100.00
17505;BME280;8870;50.950;11.762;2023-03-13T14:16:23;96728.75;;;15.01;100.00
17505;BME280;8870;50.950;11.762;2023-03-13T14:21:42;96726.28;;;14.99;100.00
17505;BME280;8870;50.950;11.762;2023-03-13T14:27:17;96694.75;;;14.86;100.00
17505;BME280;8870;50.950;11.762;2023-03-13T14:32:52;96697.59;;;14.91;100.00
17505;BME280;8870;50.950;11.762;2023-03-13T14:38:19;96689.72;;;15.14;100.00
17505;BME280;8870;50.950;11.762;2023-03-13T14:43:51;96703.34;;;15.49;100.00
17505;BME280;8870;50.950;11.762;2023-03-13T14:49:20;96695.94;;;15.92;100.00
17505;BME280;8870;50.950;11.762;2023-03-13T14:54:57;96694.25;;;15.79;100.00
17505;BME280;8870;50.950;11.762;2023-03-13T15:00:37;96691.19;;;15.52;100.00
17505;BME280;8870;50.950;11.762;2023-03-13T15:06:18;96685.06;;;15.56;100.00
17505;BME280;8870;50.950;11.762;2023-03-13T15:11:42;96673.38;;;15.80;100.00
17505;BME280;8870;50.950;11.762;2023-03-13T15:17:28;96664.16;;;15.45;100.00
17505;BME280;8870;50.950;11.762;2023-03-13T15:22:43;96650.13;;;15.48;100.00
17505;BME280;8870;50.950;11.762;2023-03-13T15:28:19;96631.47;;;15.52;100.00
17505;BME280;8870;50.950;11.762;2023-03-13T15:33:49;96616.84;;;15.53;100.00
17505;BME280;8870;50.950;11.762;2023-03-13T15:40:04;96598.69;;;15.41;100.00
17505;BME280;8870;50.950;11.762;2023-03-13T15:45:23;96579.75;;;15.82;100.00
17505;BME280;8870;50.950;11.762;2023-03-13T15:50:57;96559.44;;;15.97;100.00
17505;BME280;8870;50.950;11.762;2023-03-13T15:56:21;96544.94;;;15.91;100.00
17505;BME280;8870;50.950;11.762;2023-03-13T16:01:54;96564.31;;;15.71;100.00
17505;BME280;8870;50.950;11.762;2023-03-13T16:07:14;96546.97;;;15.60;100.00
17505;BME280;8870;50.950;11.762;2023-03-13T16:12:50;96507.38;;;15.47;100.00
17505;BME280;8870;50.950;11.762;2023-03-13T16:24:06;96497.72;;;15.39;100.00
17505;BME280;8870;50.950;11.762;2023-03-13T16:29:30;96503.63;;;15.36;100.00
17505;BME280;8870;50.950;11.762;2023-03-13T16:35:03;96493.97;;;15.29;100.00
17505;BME280;8870;50.950;11.762;2023-03-13T16:40:24;96484.41;;;15.26;100.00
17505;BME280;8870;50.950;11.762;2023-03-13T16:45:59;96475.94;;;15.22;100.00
17505;BME280;8870;50.950;11.762;2023-03-13T16:51:24;96486.78;;;15.22;100.00
17505;BME280;8870;50.950;11.762;2023-03-13T16:56:57;96487.25;;;15.31;100.00
17505;BME280;8870;50.950;11.762;2023-03-13T17:02:21;96477.72;;;15.29;100.00
17505;BME280;8870;50.950;11.762;2023-03-13T17:07:54;96477.72;;;15.17;100.00
17505;BME280;8870;50.950;11.762;2023-03-13T17:13:14;96487.25;;;15.19;100.00
17505;BME280;8870;50.950;11.762;2023-03-13T17:18:55;96483.34;;;15.27;100.00
17505;BME280;8870;50.950;11.762;2023-03-13T17:24:14;96516.50;;;15.17;100.00
17505;BME280;8870;50.950;11.762;2023-03-13T17:29:46;96544.47;;;14.70;100.00
17505;BME280;8870;50.950;11.762;2023-03-13T20:58:44;96434.91;;;11.63;100.00
17505;BME280;8870;50.950;11.762;2023-03-13T21:04:16;96453.44;;;11.53;100.00
17505;BME280;8870;50.950;11.762;2023-03-13T21:09:34;96460.47;;;11.54;100.00
17505;BME280;8870;50.950;11.762;2023-03-13T21:15:09;96460.66;;;11.59;100.00
17505;BME280;8870;50.950;11.762;2023-03-13T21:20:41;96483.47;;;11.56;100.00
17505;BME280;8870;50.950;11.762;2023-03-13T21:25:59;96480.03;;;11.43;100.00
17505;BME280;8870;50.950;11.762;2023-03-13T21:31:32;96495.22;;;11.30;100.00
17505;BME280;8870;50.950;11.762;2023-03-13T21:36:52;96503.34;;;11.23;100.00
17505;BME280;8870;50.950;11.762;2023-03-13T21:42:24;96493.38;;;11.24;100.00
17505;BME280;8870;50.950;11.762;2023-03-13T21:47:45;96480.09;;;11.29;100.00
17505;BME280;8870;50.950;11.762;2023-03-13T21:53:17;96463.09;;;11.29;100.00
17505;BME280;8870;50.950;11.762;2023-03-13T21:58:43;96378.91;;;11.33;100.00
17505;BME280;8870;50.950;11.762;2023-03-13T22:04:17;96313.25;;;11.21;100.00
17505;BME280;8870;50.950;11.762;2023-03-13T22:09:36;96243.78;;;11.23;100.00
17505;BME280;8870;50.950;11.762;2023-03-13T22:15:08;96228.38;;;11.30;100.00
17505;BME280;8870;50.950;11.762;2023-03-13T22:20:29;96244.81;;;11.47;100.00
17505;BME280;8870;50.950;11.762;2023-03-13T22:26:00;96262.66;;;11.48;100.00
17505;BME280;8870;50.950;11.762;2023-03-13T22:31:19;96268.53;;;11.38;100.00
17505;BME280;8870;50.950;11.762;2023-03-13T22:36:52;96273.59;;;10.96;100.00
17505;BME280;8870;50.950;11.762;2023-03-13T22:42:11;96279.50;;;11.44;100.00
17505;BME280;8870;50.950;11.762;2023-03-13T22:47:41;96273.16;;;11.31;100.00
17505;BME280;8870;50.950;11.762;2023-03-13T22:53:03;96266.53;;;11.27;100.00
17505;BME280;8870;50.950;11.762;2023-03-13T22:58:36;96269.72;;;11.17;100.00
17505;BME280;8870;50.950;11.762;2023-03-13T23:03:55;96288.06;;;9.91;100.00
17505;BME280;8870;50.950;11.762;2023-03-13T23:15:08;96310.63;;;9.76;100.00
17505;BME280;8870;50.950;11.762;2023-03-13T23:20:44;96291.19;;;9.74;100.00
17505;BME280;8870;50.950;11.762;2023-03-13T23:26:11;96288.72;;;9.73;100.00
17505;BME280;8870;50.950;11.762;2023-03-13T23:31:45;96303.81;;;9.67;100.00
17505;BME280;8870;50.950;11.762;2023-03-13T23:37:10;96271.34;;;9.68;100.00
17505;BME280;8870;50.950;11.762;2023-03-13T23:42:43;96288.72;;;9.66;100.00
17505;BME280;8870;50.950;11.762;2023-03-13T23:48:05;96267.22;;;9.66;100.00
17505;BME280;8870;50.950;11.762;2023-03-13T23:53:37;96262.88;;;9.65;100.00
17505;BME280;8870;50.950;11.762;2023-03-13T23:58:56;96269.69;;;9.61;100.00
